sensor_id;sensor_type;location;lat;lon;timestamp;pressure;altitude;pressure_sealevel;temperature;humidity
20620;BME280;10469;42.720;23.252;2022-10-28T00:01:51;96087.31;;;11.76;100.00
20620;BME280;10469;42.720;23.252;2022-10-28T00:04:17;96099.72;;;11.77;100.00
20620;BME280;10469;42.720;23.252;2022-10-28T00:06:43;96092.13;;;11.68;100.00
20620;BME280;10469;42.720;23.252;2022-10-28T00:09:08;96106.00;;;11.58;100.00
20620;BME280;10469;42.720;23.252;2022-10-28T00:11:34;96117.00;;;11.50;100.00
20620;BME280;10469;42.720;23.252;2022-10-28T00:14:02;96089.78;;;11.33;100.00
20620;BME280;10469;42.720;23.252;2022-10-28T00:16:31;96092.41;;;11.40;100.00
20620;BME280;10469;42.720;23.252;2022-10-28T00:18:58;96088.31;;;11.30;100.00
20620;BME280;10469;42.720;23.252;2022-10-28T00:21:26;96095.59;;;11.23;100.00
20620;BME280;10469;42.720;23.252;2022-10-28T00:23:53;96100.56;;;11.13;100.00
20620;BME280;10469;42.720;23.252;2022-10-28T00:26:22;96093.34;;;11.07;100.00
20620;BME280;10469;42.720;23.252;2022-10-28T00:28:51;96098.75;;;10.94;100.00
20620;BME280;10469;42.720;23.252;2022-10-28T00:31:18;96104.31;;;10.99;100.00
20620;BME280;10469;42.720;23.252;2022-10-28T00:33:44;96104.09;;;11.00;100.00
20620;BME280;10469;42.720;23.252;2022-10-28T00:36:15;96088.00;;;10.87;100.00
20620;BME280;10469;42.720;23.252;2022-10-28T00:38:42;96092.16;;;10.76;100.00
20620;BME280;10469;42.720;23.252;2022-10-28T00:41:09;96089.28;;;10.65;100.00
20620;BME280;10469;42.720;23.252;2022-10-28T00:43:47;96097.34;;;10.45;100.00
20620;BME280;10469;42.720;23.252;2022-10-28T00:46:43;96106.19;;;10.45;100.00
20620;BME280;10469;42.720;23.252;2022-10-28T00:49:36;96105.78;;;10.28;100.00
20620;BME280;10469;42.720;23.252;2022-10-28T00:52:06;96086.50;;;10.05;100.00
20620;BME280;10469;42.720;23.252;2022-10-28T00:54:34;96090.44;;;10.09;100.00
20620;BME280;10469;42.720;23.252;2022-10-28T00:57:01;96082.41;;;10.09;100.00
20620;BME280;10469;42.720;23.252;2022-10-28T00:59:31;96085.88;;;9.90;100.00
20620;BME280;10469;42.720;23.252;2022-10-28T01:01:58;96080.09;;;9.86;100.00
20620;BME280;10469;42.720;23.252;2022-10-28T01:04:24;96100.88;;;9.84;100.00
20620;BME280;10469;42.720;23.252;2022-10-28T01:06:50;96105.78;;;10.42;100.00
20620;BME280;10469;42.720;23.252;2022-10-28T01:09:15;96091.97;;;10.58;100.00
20620;BME280;10469;42.720;23.252;2022-10-28T01:17:34;96108.41;;;10.22;100.00
20620;BME280;10469;42.720;23.252;2022-10-28T01:20:32;96093.72;;;10.04;100.00
20620;BME280;10469;42.720;23.252;2022-10-28T01:23:15;96098.47;;;10.09;100.00
20620;BME280;10469;42.720;23.252;2022-10-28T01:26:11;96092.69;;;10.05;100.00
20620;BME280;10469;42.720;23.252;2022-10-28T01:31:50;96088.34;;;9.91;100.00
20620;BME280;10469;42.720;23.252;2022-10-28T01:34:31;96093.28;;;9.88;100.00
20620;BME280;10469;42.720;23.252;2022-10-28T01:42:31;96110.91;;;9.62;100.00
20620;BME280;10469;42.720;23.252;2022-10-28T01:45:38;96108.34;;;9.34;100.00
20620;BME280;10469;42.720;23.252;2022-10-28T01:48:11;96103.41;;;9.38;100.00
20620;BME280;10469;42.720;23.252;2022-10-28T01:51:04;96114.94;;;9.38;100.00
20620;BME280;10469;42.720;23.252;2022-10-28T01:53:36;96116.63;;;9.46;100.00
20620;BME280;10469;42.720;23.252;2022-10-28T01:56:08;96088.78;;;9.34;100.00
20620;BME280;10469;42.720;23.252;2022-10-28T01:58:36;96117.47;;;9.53;100.00
20620;BME280;10469;42.720;23.252;2022-10-28T02:01:04;96097.91;;;9.52;100.00
20620;BME280;10469;42.720;23.252;2022-10-28T02:03:31;96111.97;;;9.68;100.00
20620;BME280;10469;42.720;23.252;2022-10-28T02:06:00;96103.84;;;9.48;100.00
20620;BME280;10469;42.720;23.252;2022-10-28T02:21:27;96110.91;;;9.55;100.00
20620;BME280;10469;42.720;23.252;2022-10-28T02:24:32;96112.53;;;9.50;100.00
20620;BME280;10469;42.720;23.252;2022-10-28T02:27:14;96113.63;;;9.27;100.00
20620;BME280;10469;42.720;23.252;2022-10-28T02:29:51;96111.44;;;9.38;100.00
20620;BME280;10469;42.720;23.252;2022-10-28T02:32:24;96099.75;;;9.11;100.00
20620;BME280;10469;42.720;23.252;2022-10-28T02:34:55;96115.22;;;9.15;100.00
20620;BME280;10469;42.720;23.252;2022-10-28T02:37:28;96122.25;;;9.16;100.00
20620;BME280;10469;42.720;23.252;2022-10-28T02:39:59;96117.44;;;9.05;100.00
20620;BME280;10469;42.720;23.252;2022-10-28T02:42:29;96116.22;;;8.79;100.00
20620;BME280;10469;42.720;23.252;2022-10-28T02:45:00;96103.34;;;8.62;100.00
20620;BME280;10469;42.720;23.252;2022-10-28T02:47:33;96105.81;;;8.63;100.00
20620;BME280;10469;42.720;23.252;2022-10-28T02:50:03;96029.59;;;7.96;100.00
20620;BME280;10469;42.720;23.252;2022-10-28T02:52:31;96100.50;;;8.42;100.00
20620;BME280;10469;42.720;23.252;2022-10-28T02:55:03;96127.41;;;8.62;100.00
20620;BME280;10469;42.720;23.252;2022-10-28T02:57:39;96111.41;;;8.40;100.00
20620;BME280;10469;42.720;23.252;2022-10-28T03:00:10;96110.94;;;8.37;100.00
20620;BME280;10469;42.720;23.252;2022-10-28T03:02:39;96132.97;;;8.60;100.00
20620;BME280;10469;42.720;23.252;2022-10-28T03:05:06;96064.56;;;8.23;100.00
20620;BME280;10469;42.720;23.252;2022-10-28T03:07:32;96117.69;;;8.54;100.00
20620;BME280;10469;42.720;23.252;2022-10-28T03:09:57;96121.75;;;8.50;100.00
20620;BME280;10469;42.720;23.252;2022-10-28T03:12:22;96128.38;;;8.54;100.00
20620;BME280;10469;42.720;23.252;2022-10-28T03:14:48;96111.16;;;8.63;100.00
20620;BME280;10469;42.720;23.252;2022-10-28T03:17:13;96115.25;;;8.59;100.00
20620;BME280;10469;42.720;23.252;2022-10-28T03:19:39;96122.88;;;8.62;100.00
20620;BME280;10469;42.720;23.252;2022-10-28T03:22:04;96105.91;;;8.48;100.00
20620;BME280;10469;42.720;23.252;2022-10-28T03:24:30;96123.53;;;8.64;100.00
20620;BME280;10469;42.720;23.252;2022-10-28T03:26:55;96119.19;;;8.63;100.00
20620;BME280;10469;42.720;23.252;2022-10-28T03:29:20;96125.56;;;8.62;100.00
20620;BME280;10469;42.720;23.252;2022-10-28T03:31:46;96123.25;;;8.59;100.00
20620;BME280;10469;42.720;23.252;2022-10-28T03:34:12;96121.00;;;8.56;100.00
20620;BME280;10469;42.720;23.252;2022-10-28T03:39:13;96108.22;;;8.09;100.00
20620;BME280;10469;42.720;23.252;2022-10-28T03:41:38;96134.16;;;8.15;100.00
20620;BME280;10469;42.720;23.252;2022-10-28T03:44:04;96143.72;;;7.88;100.00
20620;BME280;10469;42.720;23.252;2022-10-28T03:46:30;96129.44;;;7.59;100.00
20620;BME280;10469;42.720;23.252;2022-10-28T03:48:55;96131.47;;;7.57;100.00
20620;BME280;10469;42.720;23.252;2022-10-28T03:51:21;96134.41;;;7.62;100.00
20620;BME280;10469;42.720;23.252;2022-10-28T03:53:46;96150.81;;;7.44;100.00
20620;BME280;10469;42.720;23.252;2022-10-28T03:56:12;96144.81;;;7.42;100.00
20620;BME280;10469;42.720;23.252;2022-10-28T03:58:37;96147.16;;;7.31;100.00
20620;BME280;10469;42.720;23.252;2022-10-28T04:01:04;96137.59;;;7.21;100.00
20620;BME280;10469;42.720;23.252;2022-10-28T04:03:29;96143.66;;;7.15;100.00
20620;BME280;10469;42.720;23.252;2022-10-28T04:05:55;96150.09;;;7.06;100.00
20620;BME280;10469;42.720;23.252;2022-10-28T04:08:22;96137.56;;;6.92;100.00
20620;BME280;10469;42.720;23.252;2022-10-28T04:10:48;96115.84;;;6.65;100.00
20620;BME280;10469;42.720;23.252;2022-10-28T04:13:14;96135.72;;;6.77;100.00
20620;BME280;10469;42.720;23.252;2022-10-28T04:15:40;96157.69;;;6.94;100.00
20620;BME280;10469;42.720;23.252;2022-10-28T04:18:06;96134.53;;;6.80;100.00
20620;BME280;10469;42.720;23.252;2022-10-28T04:20:32;96155.97;;;7.01;100.00
20620;BME280;10469;42.720;23.252;2022-10-28T04:22:57;96156.81;;;7.17;100.00
20620;BME280;10469;42.720;23.252;2022-10-28T04:25:24;96136.00;;;7.12;100.00
20620;BME280;10469;42.720;23.252;2022-10-28T04:27:50;96148.53;;;7.26;100.00
20620;BME280;10469;42.720;23.252;2022-10-28T04:30:16;96150.44;;;7.33;100.00
20620;BME280;10469;42.720;23.252;2022-10-28T04:32:43;96154.22;;;7.38;100.00
20620;BME280;10469;42.720;23.252;2022-10-28T04:35:09;96136.00;;;7.42;100.00
20620;BME280;10469;42.720;23.252;2022-10-28T04:37:35;96147.22;;;7.52;100.00
20620;BME280;10469;42.720;23.252;2022-10-28T04:40:01;96147.03;;;7.53;100.00
20620;BME280;10469;42.720;23.252;2022-10-28T04:42:27;96145.53;;;7.51;100.00
20620;BME280;10469;42.720;23.252;2022-10-28T04:44:52;96132.34;;;7.43;100.00
20620;BME280;10469;42.720;23.252;2022-10-28T04:47:17;96136.47;;;7.31;100.00
20620;BME280;10469;42.720;23.252;2022-10-28T04:49:43;96143.00;;;7.43;100.00
20620;BME280;10469;42.720;23.252;2022-10-28T04:52:09;96142.44;;;7.47;100.00
20620;BME280;10469;42.720;23.252;2022-10-28T04:54:35;96135.22;;;7.63;100.00
20620;BME280;10469;42.720;23.252;2022-10-28T04:57:00;96140.59;;;7.99;100.00
20620;BME280;10469;42.720;23.252;2022-10-28T04:59:26;96140.50;;;7.92;100.00
20620;BME280;10469;42.720;23.252;2022-10-28T05:01:51;96132.75;;;7.97;100.00
20620;BME280;10469;42.720;23.252;2022-10-28T05:04:17;96141.31;;;8.29;100.00
20620;BME280;10469;42.720;23.252;2022-10-28T05:06:42;96127.91;;;8.50;100.00
20620;BME280;10469;42.720;23.252;2022-10-28T05:09:08;96138.69;;;9.13;100.00
20620;BME280;10469;42.720;23.252;2022-10-28T05:11:33;96116.97;;;9.29;100.00
20620;BME280;10469;42.720;23.252;2022-10-28T05:13:59;96137.06;;;10.15;100.00
20620;BME280;10469;42.720;23.252;2022-10-28T05:16:24;96124.97;;;10.65;100.00
20620;BME280;10469;42.720;23.252;2022-10-28T05:18:49;96113.81;;;10.35;100.00
20620;BME280;10469;42.720;23.252;2022-10-28T05:21:15;96153.44;;;10.86;100.00
20620;BME280;10469;42.720;23.252;2022-10-28T05:23:41;96146.09;;;11.66;100.00
20620;BME280;10469;42.720;23.252;2022-10-28T05:26:06;96138.97;;;12.62;100.00
20620;BME280;10469;42.720;23.252;2022-10-28T05:28:32;96143.63;;;12.48;100.00
20620;BME280;10469;42.720;23.252;2022-10-28T05:30:57;96149.75;;;12.62;100.00
20620;BME280;10469;42.720;23.252;2022-10-28T05:33:23;96153.84;;;12.64;100.00
20620;BME280;10469;42.720;23.252;2022-10-28T05:35:48;96146.78;;;14.42;100.00
20620;BME280;10469;42.720;23.252;2022-10-28T05:38:14;96153.06;;;13.39;100.00
20620;BME280;10469;42.720;23.252;2022-10-28T05:40:39;96160.22;;;14.18;100.00
20620;BME280;10469;42.720;23.252;2022-10-28T05:43:05;96159.84;;;14.45;100.00
20620;BME280;10469;42.720;23.252;2022-10-28T05:45:30;96161.09;;;15.73;100.00
20620;BME280;10469;42.720;23.252;2022-10-28T05:47:56;96160.03;;;15.86;100.00
20620;BME280;10469;42.720;23.252;2022-10-28T05:50:22;96151.06;;;15.97;95.72
20620;BME280;10469;42.720;23.252;2022-10-28T05:52:50;96161.94;;;14.13;100.00
20620;BME280;10469;42.720;23.252;2022-10-28T05:55:17;96170.44;;;13.79;100.00
20620;BME280;10469;42.720;23.252;2022-10-28T05:57:47;96149.66;;;14.47;100.00
20620;BME280;10469;42.720;23.252;2022-10-28T06:00:13;96163.34;;;15.64;100.00
20620;BME280;10469;42.720;23.252;2022-10-28T06:02:39;96170.06;;;14.85;100.00
20620;BME280;10469;42.720;23.252;2022-10-28T06:05:05;96145.00;;;15.08;100.00
20620;BME280;10469;42.720;23.252;2022-10-28T06:07:31;96174.97;;;15.76;100.00
20620;BME280;10469;42.720;23.252;2022-10-28T06:09:59;96166.63;;;18.15;88.24
20620;BME280;10469;42.720;23.252;2022-10-28T06:12:24;96139.16;;;18.83;75.66
20620;BME280;10469;42.720;23.252;2022-10-28T06:14:50;96157.13;;;19.53;68.22
20620;BME280;10469;42.720;23.252;2022-10-28T06:17:18;96166.91;;;20.59;65.25
20620;BME280;10469;42.720;23.252;2022-10-28T06:19:44;96170.00;;;17.11;74.76
20620;BME280;10469;42.720;23.252;2022-10-28T06:22:10;96179.19;;;19.24;69.42
20620;BME280;10469;42.720;23.252;2022-10-28T06:24:36;96177.34;;;20.15;68.52
20620;BME280;10469;42.720;23.252;2022-10-28T06:27:01;96176.16;;;17.96;72.53
20620;BME280;10469;42.720;23.252;2022-10-28T06:29:26;96161.78;;;20.00;67.65
20620;BME280;10469;42.720;23.252;2022-10-28T06:31:52;96184.13;;;18.24;73.33
20620;BME280;10469;42.720;23.252;2022-10-28T06:34:18;96181.63;;;20.58;61.58
20620;BME280;10469;42.720;23.252;2022-10-28T06:36:44;96165.38;;;21.09;62.86
20620;BME280;10469;42.720;23.252;2022-10-28T06:39:09;96179.75;;;19.26;66.51
20620;BME280;10469;42.720;23.252;2022-10-28T06:41:35;96174.81;;;17.60;81.05
20620;BME280;10469;42.720;23.252;2022-10-28T06:44:01;96172.03;;;16.87;83.28
20620;BME280;10469;42.720;23.252;2022-10-28T06:46:27;96192.97;;;16.63;93.15
20620;BME280;10469;42.720;23.252;2022-10-28T06:48:53;96171.50;;;18.84;80.16
20620;BME280;10469;42.720;23.252;2022-10-28T06:51:19;96166.69;;;18.20;76.05
20620;BME280;10469;42.720;23.252;2022-10-28T06:53:51;96183.34;;;18.51;76.78
20620;BME280;10469;42.720;23.252;2022-10-28T06:56:17;96157.06;;;18.35;75.98
20620;BME280;10469;42.720;23.252;2022-10-28T06:58:42;96183.59;;;18.49;73.62
20620;BME280;10469;42.720;23.252;2022-10-28T07:01:08;96175.97;;;18.46;75.66
20620;BME280;10469;42.720;23.252;2022-10-28T07:03:34;96188.44;;;19.23;71.43
20620;BME280;10469;42.720;23.252;2022-10-28T07:05:59;96187.72;;;18.74;71.43
20620;BME280;10469;42.720;23.252;2022-10-28T07:08:26;96175.97;;;18.46;75.57
20620;BME280;10469;42.720;23.252;2022-10-28T07:10:56;96186.06;;;18.51;74.27
20620;BME280;10469;42.720;23.252;2022-10-28T07:13:23;96188.31;;;18.59;73.95
20620;BME280;10469;42.720;23.252;2022-10-28T07:15:53;96166.94;;;17.75;76.61
20620;BME280;10469;42.720;23.252;2022-10-28T07:18:20;96182.44;;;18.18;77.58
20620;BME280;10469;42.720;23.252;2022-10-28T07:20:47;96184.22;;;18.78;71.09
20620;BME280;10469;42.720;23.252;2022-10-28T07:23:12;96190.25;;;18.37;73.44
20620;BME280;10469;42.720;23.252;2022-10-28T07:25:38;96185.91;;;18.85;72.43
20620;BME280;10469;42.720;23.252;2022-10-28T07:28:04;96181.34;;;19.97;67.28
20620;BME280;10469;42.720;23.252;2022-10-28T07:30:30;96173.47;;;19.58;65.85
20620;BME280;10469;42.720;23.252;2022-10-28T07:32:56;96174.19;;;18.57;70.90
20620;BME280;10469;42.720;23.252;2022-10-28T07:35:28;96169.25;;;21.44;62.92
20620;BME280;10469;42.720;23.252;2022-10-28T07:37:54;96182.59;;;21.25;58.98
20620;BME280;10469;42.720;23.252;2022-10-28T07:40:20;96181.78;;;21.40;58.65
20620;BME280;10469;42.720;23.252;2022-10-28T07:42:46;96172.16;;;20.76;58.47
20620;BME280;10469;42.720;23.252;2022-10-28T07:45:11;96169.94;;;22.21;54.82
20620;BME280;10469;42.720;23.252;2022-10-28T07:47:37;96169.47;;;20.13;62.56
20620;BME280;10469;42.720;23.252;2022-10-28T07:50:04;96172.81;;;20.36;61.70
20620;BME280;10469;42.720;23.252;2022-10-28T07:52:30;96185.63;;;20.30;61.89
20620;BME280;10469;42.720;23.252;2022-10-28T07:54:55;96173.28;;;20.17;60.57
20620;BME280;10469;42.720;23.252;2022-10-28T07:57:21;96183.59;;;20.10;62.30
20620;BME280;10469;42.720;23.252;2022-10-28T07:59:46;96182.41;;;18.89;65.94
20620;BME280;10469;42.720;23.252;2022-10-28T08:02:22;96171.41;;;21.37;61.21
20620;BME280;10469;42.720;23.252;2022-10-28T08:04:49;96168.88;;;22.07;56.82
20620;BME280;10469;42.720;23.252;2022-10-28T08:07:15;96172.47;;;21.82;57.06
20620;BME280;10469;42.720;23.252;2022-10-28T08:09:40;96164.19;;;20.49;56.57
20620;BME280;10469;42.720;23.252;2022-10-28T08:12:07;96172.69;;;22.11;57.03
20620;BME280;10469;42.720;23.252;2022-10-28T08:14:33;96181.78;;;23.78;50.93
20620;BME280;10469;42.720;23.252;2022-10-28T08:16:59;96172.19;;;23.13;51.92
20620;BME280;10469;42.720;23.252;2022-10-28T08:19:25;96176.66;;;20.40;57.91
20620;BME280;10469;42.720;23.252;2022-10-28T08:21:51;96168.91;;;20.16;60.79
20620;BME280;10469;42.720;23.252;2022-10-28T08:24:17;96159.31;;;20.71;59.65
20620;BME280;10469;42.720;23.252;2022-10-28T08:26:42;96170.59;;;21.16;58.16
20620;BME280;10469;42.720;23.252;2022-10-28T08:29:10;96161.69;;;23.59;51.39
20620;BME280;10469;42.720;23.252;2022-10-28T08:31:37;96163.81;;;22.99;50.34
20620;BME280;10469;42.720;23.252;2022-10-28T08:34:04;96168.22;;;22.95;50.46
20620;BME280;10469;42.720;23.252;2022-10-28T08:36:29;96173.34;;;23.07;50.35
20620;BME280;10469;42.720;23.252;2022-10-28T08:38:54;96171.66;;;21.10;53.87
20620;BME280;10469;42.720;23.252;2022-10-28T08:41:39;96176.78;;;20.80;56.72
20620;BME280;10469;42.720;23.252;2022-10-28T08:49:14;96157.25;;;23.34;50.68
20620;BME280;10469;42.720;23.252;2022-10-28T08:55:06;96157.47;;;26.09;43.50
20620;BME280;10469;42.720;23.252;2022-10-28T09:00:04;96163.28;;;22.42;50.64
20620;BME280;10469;42.720;23.252;2022-10-28T09:02:43;96152.53;;;23.40;48.70
20620;BME280;10469;42.720;23.252;2022-10-28T09:05:15;96157.00;;;23.31;50.17
20620;BME280;10469;42.720;23.252;2022-10-28T09:07:43;96140.75;;;24.88;45.35
20620;BME280;10469;42.720;23.252;2022-10-28T09:10:11;96128.53;;;27.39;41.32
20620;BME280;10469;42.720;23.252;2022-10-28T09:12:53;96142.75;;;28.57;37.46
20620;BME280;10469;42.720;23.252;2022-10-28T09:15:35;96136.50;;;30.24;34.88
20620;BME280;10469;42.720;23.252;2022-10-28T09:18:17;96137.81;;;29.45;34.65
20620;BME280;10469;42.720;23.252;2022-10-28T09:20:53;96135.28;;;26.46;39.12
20620;BME280;10469;42.720;23.252;2022-10-28T09:23:35;96123.25;;;26.92;40.27
20620;BME280;10469;42.720;23.252;2022-10-28T09:31:46;96133.19;;;23.65;46.01
20620;BME280;10469;42.720;23.252;2022-10-28T09:36:54;96098.94;;;24.40;44.06
20620;BME280;10469;42.720;23.252;2022-10-28T09:39:28;96110.16;;;25.33;42.33
20620;BME280;10469;42.720;23.252;2022-10-28T09:41:59;96100.66;;;23.88;44.89
20620;BME280;10469;42.720;23.252;2022-10-28T09:45:03;96102.25;;;26.96;39.99
20620;BME280;10469;42.720;23.252;2022-10-28T09:47:31;96099.72;;;28.47;37.18
20620;BME280;10469;42.720;23.252;2022-10-28T09:50:00;96080.59;;;29.37;35.12
20620;BME280;10469;42.720;23.252;2022-10-28T09:52:37;96082.28;;;25.07;40.18
20620;BME280;10469;42.720;23.252;2022-10-28T09:55:14;96072.94;;;26.28;39.61
20620;BME280;10469;42.720;23.252;2022-10-28T09:57:40;96075.19;;;25.06;41.23
20620;BME280;10469;42.720;23.252;2022-10-28T10:00:06;96079.97;;;24.81;42.93
20620;BME280;10469;42.720;23.252;2022-10-28T10:02:32;96068.47;;;26.82;39.29
20620;BME280;10469;42.720;23.252;2022-10-28T10:05:00;96067.09;;;27.16;38.56
20620;BME280;10469;42.720;23.252;2022-10-28T10:07:39;96061.50;;;28.32;36.61
20620;BME280;10469;42.720;23.252;2022-10-28T10:10:13;96071.34;;;26.99;39.32
20620;BME280;10469;42.720;23.252;2022-10-28T10:12:39;96055.72;;;25.67;39.20
20620;BME280;10469;42.720;23.252;2022-10-28T10:15:07;96062.44;;;24.96;41.79
20620;BME280;10469;42.720;23.252;2022-10-28T10:17:40;96063.47;;;26.48;40.79
20620;BME280;10469;42.720;23.252;2022-10-28T10:22:35;96054.28;;;28.88;34.44
20620;BME280;10469;42.720;23.252;2022-10-28T10:25:24;96047.16;;;29.21;33.48
20620;BME280;10469;42.720;23.252;2022-10-28T10:27:58;96050.41;;;28.89;34.76
20620;BME280;10469;42.720;23.252;2022-10-28T10:30:29;96035.63;;;29.19;33.89
20620;BME280;10469;42.720;23.252;2022-10-28T10:32:56;96034.13;;;29.86;33.35
20620;BME280;10469;42.720;23.252;2022-10-28T10:35:25;96039.19;;;28.59;34.22
20620;BME280;10469;42.720;23.252;2022-10-28T10:37:52;96029.66;;;31.04;31.89
20620;BME280;10469;42.720;23.252;2022-10-28T10:42:51;96034.81;;;27.30;36.22
20620;BME280;10469;42.720;23.252;2022-10-28T10:45:24;96030.03;;;29.45;33.30
20620;BME280;10469;42.720;23.252;2022-10-28T10:48:10;96030.41;;;27.51;34.93
20620;BME280;10469;42.720;23.252;2022-10-28T10:50:36;96020.69;;;26.78;36.98
20620;BME280;10469;42.720;23.252;2022-10-28T10:53:02;96018.81;;;27.41;35.93
20620;BME280;10469;42.720;23.252;2022-10-28T10:55:36;96019.75;;;25.83;37.85
20620;BME280;10469;42.720;23.252;2022-10-28T10:58:04;96006.72;;;28.39;33.47
20620;BME280;10469;42.720;23.252;2022-10-28T11:00:35;96012.63;;;27.66;34.03
20620;BME280;10469;42.720;23.252;2022-10-28T11:03:05;96007.03;;;28.37;33.86
20620;BME280;10469;42.720;23.252;2022-10-28T11:05:47;96009.47;;;28.65;32.85
20620;BME280;10469;42.720;23.252;2022-10-28T11:11:02;96007.84;;;28.81;32.11
20620;BME280;10469;42.720;23.252;2022-10-28T11:13:29;95998.13;;;29.65;31.22
20620;BME280;10469;42.720;23.252;2022-10-28T11:15:59;95995.63;;;30.82;29.07
20620;BME280;10469;42.720;23.252;2022-10-28T11:18:25;95999.13;;;30.29;29.44
20620;BME280;10469;42.720;23.252;2022-10-28T11:20:55;95990.63;;;31.30;28.90
20620;BME280;10469;42.720;23.252;2022-10-28T11:23:49;95973.72;;;27.06;33.04
20620;BME280;10469;42.720;23.252;2022-10-28T11:26:21;95980.41;;;27.75;32.65
20620;BME280;10469;42.720;23.252;2022-10-28T11:28:49;95980.75;;;28.40;31.63
20620;BME280;10469;42.720;23.252;2022-10-28T11:31:31;95986.44;;;28.52;31.11
20620;BME280;10469;42.720;23.252;2022-10-28T11:34:40;95982.53;;;29.52;30.06
20620;BME280;10469;42.720;23.252;2022-10-28T11:39:32;95984.88;;;27.23;32.37
20620;BME280;10469;42.720;23.252;2022-10-28T11:42:13;95981.75;;;27.16;33.34
20620;BME280;10469;42.720;23.252;2022-10-28T11:45:04;95980.44;;;25.96;35.46
20620;BME280;10469;42.720;23.252;2022-10-28T11:50:40;95984.34;;;26.31;34.67
20620;BME280;10469;42.720;23.252;2022-10-28T11:56:08;95974.94;;;27.84;32.29
20620;BME280;10469;42.720;23.252;2022-10-28T11:58:46;95970.34;;;26.05;34.36
20620;BME280;10469;42.720;23.252;2022-10-28T12:01:38;95961.09;;;25.60;35.77
20620;BME280;10469;42.720;23.252;2022-10-28T12:04:07;95966.19;;;25.80;35.08
20620;BME280;10469;42.720;23.252;2022-10-28T12:07:33;95952.06;;;26.23;35.19
20620;BME280;10469;42.720;23.252;2022-10-28T12:15:25;95964.44;;;24.31;38.11
20620;BME280;10469;42.720;23.252;2022-10-28T12:18:04;95956.63;;;25.50;36.11
20620;BME280;10469;42.720;23.252;2022-10-28T12:20:43;95952.16;;;25.54;35.90
20620;BME280;10469;42.720;23.252;2022-10-28T12:23:16;95950.41;;;24.70;36.78
20620;BME280;10469;42.720;23.252;2022-10-28T12:25:44;95936.28;;;24.91;36.97
20620;BME280;10469;42.720;23.252;2022-10-28T12:28:18;95930.50;;;24.27;37.77
20620;BME280;10469;42.720;23.252;2022-10-28T12:30:47;95953.47;;;23.93;38.55
20620;BME280;10469;42.720;23.252;2022-10-28T12:33:28;95954.03;;;23.90;38.61
20620;BME280;10469;42.720;23.252;2022-10-28T12:38:50;95946.91;;;23.70;39.65
20620;BME280;10469;42.720;23.252;2022-10-28T12:41:25;95947.16;;;23.02;40.87
20620;BME280;10469;42.720;23.252;2022-10-28T12:43:55;95949.81;;;22.44;41.49
20620;BME280;10469;42.720;23.252;2022-10-28T12:46:37;95928.28;;;22.37;41.20
20620;BME280;10469;42.720;23.252;2022-10-28T12:49:13;95943.47;;;22.09;41.35
20620;BME280;10469;42.720;23.252;2022-10-28T12:51:41;95935.16;;;21.15;43.26
20620;BME280;10469;42.720;23.252;2022-10-28T12:54:17;95937.03;;;21.95;42.44
20620;BME280;10469;42.720;23.252;2022-10-28T12:56:53;95937.34;;;21.34;43.30
20620;BME280;10469;42.720;23.252;2022-10-28T12:59:32;95925.28;;;21.40;43.25
20620;BME280;10469;42.720;23.252;2022-10-28T13:02:00;95911.50;;;21.00;43.92
20620;BME280;10469;42.720;23.252;2022-10-28T13:04:29;95929.28;;;20.77;44.54
20620;BME280;10469;42.720;23.252;2022-10-28T13:09:49;95931.19;;;20.77;44.79
20620;BME280;10469;42.720;23.252;2022-10-28T13:12:27;95929.84;;;20.69;45.15
20620;BME280;10469;42.720;23.252;2022-10-28T13:27:59;95930.56;;;19.73;46.51
20620;BME280;10469;42.720;23.252;2022-10-28T13:30:26;95906.63;;;19.75;47.47
20620;BME280;10469;42.720;23.252;2022-10-28T13:33:15;95922.41;;;19.78;47.86
20620;BME280;10469;42.720;23.252;2022-10-28T13:35:43;95913.16;;;19.84;48.06
20620;BME280;10469;42.720;23.252;2022-10-28T13:38:12;95907.72;;;19.79;47.99
20620;BME280;10469;42.720;23.252;2022-10-28T13:43:19;95920.50;;;19.73;48.72
20620;BME280;10469;42.720;23.252;2022-10-28T13:45:53;95901.19;;;19.70;48.12
20620;BME280;10469;42.720;23.252;2022-10-28T13:54:00;95913.72;;;19.91;48.59
20620;BME280;10469;42.720;23.252;2022-10-28T14:04:31;95909.09;;;19.87;48.00
20620;BME280;10469;42.720;23.252;2022-10-28T14:09:34;95900.22;;;19.34;48.36
20620;BME280;10469;42.720;23.252;2022-10-28T14:14:31;95894.56;;;19.50;48.20
20620;BME280;10469;42.720;23.252;2022-10-28T14:16:57;95894.56;;;19.50;48.15
20620;BME280;10469;42.720;23.252;2022-10-28T14:19:22;95893.25;;;19.63;47.68
20620;BME280;10469;42.720;23.252;2022-10-28T14:22:07;95895.16;;;19.68;47.30
20620;BME280;10469;42.720;23.252;2022-10-28T14:40:50;95897.75;;;19.27;48.90
20620;BME280;10469;42.720;23.252;2022-10-28T14:43:27;95896.88;;;19.16;49.59
20620;BME280;10469;42.720;23.252;2022-10-28T14:49:02;95896.31;;;19.09;49.78
20620;BME280;10469;42.720;23.252;2022-10-28T14:51:40;95891.69;;;19.04;49.49
20620;BME280;10469;42.720;23.252;2022-10-28T14:54:13;95883.78;;;19.03;49.86
20620;BME280;10469;42.720;23.252;2022-10-28T14:56:39;95879.94;;;18.94;48.35
20620;BME280;10469;42.720;23.252;2022-10-28T14:59:26;95892.22;;;19.01;48.94
20620;BME280;10469;42.720;23.252;2022-10-28T15:02:00;95893.25;;;18.95;49.39
20620;BME280;10469;42.720;23.252;2022-10-28T15:04:42;95892.94;;;18.87;49.05
20620;BME280;10469;42.720;23.252;2022-10-28T15:07:13;95883.66;;;18.77;49.19
20620;BME280;10469;42.720;23.252;2022-10-28T15:09:41;95898.31;;;18.76;49.56
20620;BME280;10469;42.720;23.252;2022-10-28T15:12:13;95892.06;;;18.71;49.42
20620;BME280;10469;42.720;23.252;2022-10-28T15:14:50;95896.88;;;18.69;49.52